National Weather Service Raw Text Product

Displaying AFOS PIL: TAFMCW Received: 2018-12-06 11:29 UTC


307 
FTUS43 KDMX 061129
TAFMCW
TAF
KMCW 061129Z 0612/0712 32011KT P6SM SCT025
     FM070300 VRB04KT P6SM SKC=